Time;durP1;ratioP1;P1;durP2;ratioP2;P2;SDS_P1;SDS_P2;PMS_P1;PMS_P2;Temp;Humidity;BMP_temperature;BMP_pressure;BME280_temperature;BME280_humidity;BME280_pressure;Samples;Min_cycle;Max_cycle;Signal;HPM_P1;HPM_P2
2023/04/13 00:00:34;;;;;;;;;;;;;;;8.75;75.37;98736.25;1084999;54;19970;-79
2023/04/13 00:01:35;;;;;;;;;;;;;;;8.71;75.42;98741.06;1084867;54;19973;-79
2023/04/13 00:02:38;;;;;;;;;;;;;;;8.71;75.13;98742.88;1084782;54;19957;-78
2023/04/13 00:03:40;;;;;;;;;;;;;;;8.84;75.17;98729.94;1084882;54;19974;-79
2023/04/13 00:04:44;;;;;;;;;;;;;;;8.79;75.63;98742.91;1084764;54;19957;-79
2023/04/13 00:05:46;;;;;;;;;;;;;;;8.76;76.15;98745.06;1085058;54;20041;-80
2023/04/13 00:06:51;;;;;;;;;;;;;;;8.71;74.48;98734.91;1085654;47;19958;-79
2023/04/13 00:07:54;;;;;;;;;;;;;;;8.66;75.28;98743.38;1085379;39;20470;-79
2023/04/13 00:09:06;;;;;;;;;;;;;;;8.61;75.08;98748.38;1084973;54;19951;-80
2023/04/13 00:10:08;;;;;;;;;;;;;;;8.63;74.68;98745.53;1086239;54;19950;-79
2023/04/13 00:11:13;;;;;;;;;;;;;;;8.55;72.68;98749.03;1085262;54;20447;-80
2023/04/13 00:12:14;;;;;;;;;;;;;;;8.61;71.72;98744.88;1085493;54;20532;-81
2023/04/13 00:13:18;;;;;;;;;;;;;;;8.62;70.93;98751.88;1085667;54;19974;-81
2023/04/13 00:14:19;;;;;;;;;;;;;;;8.66;70.93;98747.91;1084788;54;19950;-81
2023/04/13 00:15:24;;;;;;;;;;;;;;;8.73;71.06;98744.41;1084823;54;19947;-80
2023/04/13 00:16:28;;;;;;;;;;;;;;;8.75;70.05;98744.25;1085039;54;19977;-81
2023/04/13 00:17:32;;;;;;;;;;;;;;;8.86;71.04;98746.59;1085098;54;19990;-80
2023/04/13 00:18:33;;;;;;;;;;;;;;;8.85;70.46;98747.59;1086411;54;19994;-80
2023/04/13 00:19:40;;;;;;;;;;;;;;;8.83;70.36;98749.56;1085820;54;19974;-80
2023/04/13 00:20:42;;;;;;;;;;;;;;;8.78;69.99;98746.59;1086990;39;20570;-81
2023/04/13 00:21:46;;;;;;;;;;;;;;;8.86;70.50;98748.41;1085438;54;19954;-81
2023/04/13 00:22:48;;;;;;;;;;;;;;;8.92;71.01;98747.75;1085882;54;19962;-80
2023/04/13 00:23:55;;;;;;;;;;;;;;;8.99;70.60;98753.25;1086798;54;19950;-81
2023/04/13 00:24:56;;;;;;;;;;;;;;;8.96;70.26;98753.59;1087597;54;19973;-82
2023/04/13 00:26:01;;;;;;;;;;;;;;;8.96;70.34;98746.41;1087750;54;19949;-81
2023/04/13 00:27:03;;;;;;;;;;;;;;;8.85;69.86;98752.91;1088672;46;20019;-81
2023/04/13 00:28:09;;;;;;;;;;;;;;;8.87;69.86;98744.75;1087398;54;19943;-81
2023/04/13 00:29:10;;;;;;;;;;;;;;;8.84;70.23;98751.25;1087232;54;19930;-80
2023/04/13 00:30:15;;;;;;;;;;;;;;;8.89;70.23;98748.91;1086028;46;20426;-81
2023/04/13 00:31:16;;;;;;;;;;;;;;;8.84;70.37;98745.91;1085304;54;19951;-81
2023/04/13 00:32:20;;;;;;;;;;;;;;;8.81;70.59;98745.41;1085231;54;19953;-80
2023/04/13 00:33:21;;;;;;;;;;;;;;;8.83;70.99;98746.91;1084873;54;19950;-79
2023/04/13 00:34:25;;;;;;;;;;;;;;;8.88;70.85;98728.56;1084362;39;20382;-80
2023/04/13 00:35:26;;;;;;;;;;;;;;;8.90;71.34;98739.91;1083721;54;19950;-80
2023/04/13 00:36:30;;;;;;;;;;;;;;;8.87;71.41;98739.41;1083756;54;19946;-80
2023/04/13 00:37:31;;;;;;;;;;;;;;;8.85;70.84;98744.06;1084600;54;19950;-81
2023/04/13 00:38:35;;;;;;;;;;;;;;;8.79;71.33;98748.22;1084537;54;19962;-79
2023/04/13 00:39:39;;;;;;;;;;;;;;;8.77;71.62;98749.41;1084097;54;19947;-80
2023/04/13 00:40:43;;;;;;;;;;;;;;;8.85;71.36;98747.59;1084056;54;19971;-79
2023/04/13 00:41:44;;;;;;;;;;;;;;;8.77;71.45;98755.56;1084184;54;19990;-80
2023/04/13 00:42:49;;;;;;;;;;;;;;;8.77;71.97;98755.56;1084051;54;19962;-80
2023/04/13 00:43:53;;;;;;;;;;;;;;;8.80;72.07;98760.56;1084222;54;19947;-80
2023/04/13 00:44:54;;;;;;;;;;;;;;;8.88;71.96;98763.22;1084124;54;19969;-80
2023/04/13 00:45:58;;;;;;;;;;;;;;;8.92;72.12;98763.75;1084549;46;20530;-81
2023/04/13 00:46:59;;;;;;;;;;;;;;;8.89;72.46;98769.41;1084574;54;19950;-80
2023/04/13 00:48:03;;;;;;;;;;;;;;;8.92;71.54;98769.09;1084318;54;19957;-79
2023/04/13 00:49:07;;;;;;;;;;;;;;;8.83;71.41;98762.91;1084343;54;19950;-80
2023/04/13 00:50:09;;;;;;;;;;;;;;;8.85;71.80;98768.06;1086287;54;19973;-80
2023/04/13 00:51:14;;;;;;;;;;;;;;;8.85;71.08;98776.91;1086309;54;19948;-80
2023/04/13 00:52:15;;;;;;;;;;;;;;;8.82;71.13;98766.56;1086147;54;19950;-81
2023/04/13 00:53:21;;;;;;;;;;;;;;;8.76;70.49;98764.56;1086251;54;19946;-82
2023/04/13 00:54:22;;;;;;;;;;;;;;;8.76;70.37;98764.56;1086974;54;19950;-81
2023/04/13 00:55:29;;;;;;;;;;;;;;;8.79;70.27;98761.53;1087054;54;19942;-80
2023/04/13 00:56:32;;;;;;;;;;;;;;;8.69;70.00;98768.88;1087217;39;20776;-81
2023/04/13 00:57:39;;;;;;;;;;;;;;;8.64;69.28;98771.19;1087067;54;19970;-83
2023/04/13 00:58:41;;;;;;;;;;;;;;;8.64;69.50;98765.88;1086556;54;19951;-80
2023/04/13 00:59:46;;;;;;;;;;;;;;;8.65;69.32;98765.69;1085189;46;19962;-80
2023/04/13 01:00:47;;;;;;;;;;;;;;;8.67;68.89;98761.03;1085565;46;19954;-80
2023/04/13 01:01:55;;;;;;;;;;;;;;;8.62;68.45;98765.19;1085570;54;19947;-80
2023/04/13 01:02:56;;;;;;;;;;;;;;;8.66;69.00;98758.56;1085519;54;19981;-81
2023/04/13 01:03:59;;;;;;;;;;;;;;;8.69;68.70;98764.38;1085832;54;19962;-81
2023/04/13 01:05:05;;;;;;;;;;;;;;;8.61;68.22;98760.84;1085530;54;19973;-79
2023/04/13 01:06:17;;;;;;;;;;;;;;;8.61;68.20;98760.84;1085652;54;19950;-80
2023/04/13 01:07:23;;;;;;;;;;;;;;;8.57;67.75;98765.69;1085595;54;19969;-80
2023/04/13 01:08:31;;;;;;;;;;;;;;;8.58;68.29;98760.22;1087157;54;19948;-81
2023/04/13 01:09:38;;;;;;;;;;;;;;;8.62;68.11;98762.53;1086862;54;19943;-80
2023/04/13 01:10:50;;;;;;;;;;;;;;;8.67;68.12;98766.38;1085646;54;20002;-79
2023/04/13 01:11:55;;;;;;;;;;;;;;;8.52;67.83;98766.16;1085481;54;19950;-80
2023/04/13 01:13:07;;;;;;;;;;;;;;;8.54;67.96;98760.69;1085417;54;19946;-80
2023/04/13 01:14:12;;;;;;;;;;;;;;;8.53;65.68;98767.03;1085355;54;19946;-80
2023/04/13 01:15:16;;;;;;;;;;;;;;;8.58;66.41;98768.19;1085449;54;20481;-81
2023/04/13 01:16:18;;;;;;;;;;;;;;;8.62;66.82;98773.19;1085371;54;19950;-80
2023/04/13 01:17:25;;;;;;;;;;;;;;;8.61;66.88;98771.50;1085244;54;19946;-80
2023/04/13 01:18:26;;;;;;;;;;;;;;;8.66;67.08;98764.69;1085148;54;19954;-80
2023/04/13 01:19:45;;;;;;;;;;;;;;;8.57;66.47;98766.53;1085422;54;20020;-80
2023/04/13 01:20:47;;;;;;;;;;;;;;;8.70;66.93;98757.22;1085458;54;19950;-80
2023/04/13 01:21:53;;;;;;;;;;;;;;;8.56;66.06;98769.34;1085288;54;19974;-80
2023/04/13 01:22:55;;;;;;;;;;;;;;;8.50;65.69;98768.16;1085317;54;20022;-81
2023/04/13 01:24:07;;;;;;;;;;;;;;;8.51;65.44;98764.50;1085214;54;20051;-80
2023/04/13 01:25:26;;;;;;;;;;;;;;;8.58;66.30;98762.88;1085208;54;19958;-80
2023/04/13 01:26:38;;;;;;;;;;;;;;;8.68;66.16;98757.38;1085696;54;19947;-80
2023/04/13 01:27:45;;;;;;;;;;;;;;;8.60;66.36;98761.88;1085297;54;20007;-81
2023/04/13 01:28:50;;;;;;;;;;;;;;;8.67;66.39;98763.72;1085317;54;19991;-80
2023/04/13 01:29:55;;;;;;;;;;;;;;;8.66;66.06;98761.22;1085149;54;20525;-80
2023/04/13 01:31:00;;;;;;;;;;;;;;;8.74;66.48;98763.88;1085166;54;19957;-80
2023/04/13 01:32:01;;;;;;;;;;;;;;;8.72;66.39;98757.88;1085603;39;20434;-81
2023/04/13 01:33:06;;;;;;;;;;;;;;;8.68;65.46;98759.22;1085393;54;19950;-80
2023/04/13 01:34:10;;;;;;;;;;;;;;;8.73;65.58;98767.53;1085318;54;19973;-81
2023/04/13 01:35:11;;;;;;;;;;;;;;;8.69;64.91;98760.91;1085141;54;19951;-80
2023/04/13 01:36:15;;;;;;;;;;;;;;;8.71;64.75;98767.72;1085147;54;19946;-80
2023/04/13 01:37:16;;;;;;;;;;;;;;;8.74;65.10;98771.88;1084605;39;20351;-81
2023/04/13 01:38:24;;;;;;;;;;;;;;;8.73;64.76;98770.22;1085531;54;19947;-80
2023/04/13 01:39:30;;;;;;;;;;;;;;;8.72;64.62;98776.53;1085457;54;19958;-80
2023/04/13 01:40:39;;;;;;;;;;;;;;;8.69;64.44;98785.69;1084729;54;19947;-80
2023/04/13 01:41:43;;;;;;;;;;;;;;;8.66;64.78;98775.34;1084781;54;19970;-79
2023/04/13 01:42:46;;;;;;;;;;;;;;;8.62;64.43;98782.03;1084622;54;19946;-80
2023/04/13 01:43:50;;;;;;;;;;;;;;;8.63;65.03;98780.19;1084937;54;19947;-80
2023/04/13 01:44:55;;;;;;;;;;;;;;;8.70;64.88;98776.72;1086580;54;19943;-79
2023/04/13 01:46:03;;;;;;;;;;;;;;;8.70;64.81;98778.53;1086560;54;19946;-81
2023/04/13 01:47:14;;;;;;;;;;;;;;;8.66;64.17;98779.88;1084997;54;19946;-79
2023/04/13 01:48:22;;;;;;;;;;;;;;;8.56;63.90;98783.50;1084847;54;19957;-79
2023/04/13 01:49:23;;;;;;;;;;;;;;;8.49;63.20;98779.84;1084585;54;19950;-80
2023/04/13 01:50:28;;;;;;;;;;;;;;;8.54;63.63;98779.34;1084677;54;19947;-80
2023/04/13 01:51:31;;;;;;;;;;;;;;;8.60;63.23;98780.53;1085110;54;19972;-79
2023/04/13 01:52:35;;;;;;;;;;;;;;;8.58;63.76;98778.84;1084696;54;19946;-80
2023/04/13 01:53:39;;;;;;;;;;;;;;;8.61;63.61;98779.50;1084632;54;19947;-80
2023/04/13 01:54:45;;;;;;;;;;;;;;;8.63;63.64;98772.19;1084722;54;19957;-81
2023/04/13 01:55:47;;;;;;;;;;;;;;;8.60;63.25;98772.53;1084668;54;19950;-80
2023/04/13 01:56:51;;;;;;;;;;;;;;;8.57;63.42;98769.19;1085427;39;20394;-79
2023/04/13 01:58:00;;;;;;;;;;;;;;;8.63;63.99;98767.72;1084830;54;19946;-79
2023/04/13 01:59:04;;;;;;;;;;;;;;;8.61;63.80;98768.84;1084464;54;19975;-80
2023/04/13 02:00:09;;;;;;;;;;;;;;;8.62;63.88;98762.53;1084890;54;19946;-79
2023/04/13 02:01:14;;;;;;;;;;;;;;;8.58;63.48;98762.88;1084940;54;19950;-80
2023/04/13 02:02:15;;;;;;;;;;;;;;;8.56;63.52;98772.00;1084705;54;19946;-79
2023/04/13 02:03:21;;;;;;;;;;;;;;;8.59;63.55;98763.69;1084763;54;19953;-79
2023/04/13 02:04:22;;;;;;;;;;;;;;;8.60;63.84;98764.53;1084872;46;19949;-79
2023/04/13 02:05:26;;;;;;;;;;;;;;;8.69;64.04;98753.72;1084891;54;19978;-79
2023/04/13 02:06:27;;;;;;;;;;;;;;;8.72;63.46;98760.56;1085033;54;19991;-79
2023/04/13 02:07:31;;;;;;;;;;;;;;;8.73;63.87;98764.88;1085029;54;19954;-79
2023/04/13 02:08:33;;;;;;;;;;;;;;;8.77;63.81;98763.56;1084899;54;19950;-79
2023/04/13 02:09:38;;;;;;;;;;;;;;;8.81;63.76;98756.06;1085040;54;19951;-80
2023/04/13 02:10:41;;;;;;;;;;;;;;;8.82;63.42;98755.91;1085712;54;19950;-80
2023/04/13 02:11:46;;;;;;;;;;;;;;;8.82;63.51;98753.22;1085505;54;19951;-80
2023/04/13 02:12:47;;;;;;;;;;;;;;;8.84;63.21;98758.38;1085424;54;19959;-79
2023/04/13 02:13:56;;;;;;;;;;;;;;;8.80;63.70;98754.41;1085235;54;20078;-79
2023/04/13 02:14:57;;;;;;;;;;;;;;;8.82;63.82;98753.22;1085148;54;19950;-80
2023/04/13 02:16:00;;;;;;;;;;;;;;;8.75;63.83;98754.91;1084562;54;19946;-80
2023/04/13 02:17:02;;;;;;;;;;;;;;;8.79;63.54;98750.88;1084802;54;19951;-79
2023/04/13 02:18:06;;;;;;;;;;;;;;;8.85;63.96;98747.59;1084911;54;19977;-80
2023/04/13 02:19:07;;;;;;;;;;;;;;;8.80;63.74;98749.06;1085073;54;19947;-80
2023/04/13 02:20:12;;;;;;;;;;;;;;;8.67;63.84;98744.25;1087097;39;20715;-80
2023/04/13 02:21:15;;;;;;;;;;;;;;;8.67;63.68;98747.72;1084980;54;19981;-80
2023/04/13 02:22:18;;;;;;;;;;;;;;;8.70;63.79;98746.56;1085496;54;20047;-81
2023/04/13 02:23:20;;;;;;;;;;;;;;;8.68;64.27;98745.91;1085675;54;20485;-80
2023/04/13 02:24:23;;;;;;;;;;;;;;;8.73;64.36;98744.41;1085550;54;19951;-80
2023/04/13 02:25:26;;;;;;;;;;;;;;;8.64;64.16;98747.22;1085743;54;19958;-80
2023/04/13 02:26:32;;;;;;;;;;;;;;;8.66;63.88;98753.22;1085748;54;19962;-81
2023/04/13 02:27:34;;;;;;;;;;;;;;;8.73;64.17;98744.41;1085888;54;19950;-80
2023/04/13 02:28:39;;;;;;;;;;;;;;;8.74;63.81;98742.56;1087267;39;20440;-79
2023/04/13 02:29:42;;;;;;;;;;;;;;;8.70;64.00;98751.88;1086457;31;20433;-80
2023/04/13 02:30:46;;;;;;;;;;;;;;;8.76;63.98;98748.56;1085599;54;19950;-79
2023/04/13 02:31:47;;;;;;;;;;;;;;;8.71;64.38;98757.06;1085721;54;19950;-80
2023/04/13 02:32:52;;;;;;;;;;;;;;;8.66;64.23;98758.56;1086279;39;20717;-80
2023/04/13 02:33:53;;;;;;;;;;;;;;;8.64;64.54;98760.53;1086687;39;20397;-81
2023/04/13 02:34:57;;;;;;;;;;;;;;;8.60;64.84;98767.22;1085496;54;19939;-80
2023/04/13 02:36:01;;;;;;;;;;;;;;;8.61;64.57;98760.84;1085154;54;19946;-79
2023/04/13 02:37:08;;;;;;;;;;;;;;;8.51;64.47;98759.16;1085445;54;19972;-81
2023/04/13 02:38:10;;;;;;;;;;;;;;;8.46;64.90;98758.81;1085061;46;19947;-79
2023/04/13 02:39:15;;;;;;;;;;;;;;;8.51;64.83;98748.53;1085171;54;19954;-78
2023/04/13 02:40:16;;;;;;;;;;;;;;;8.51;64.79;98750.34;1085549;54;20002;-79
2023/04/13 02:41:21;;;;;;;;;;;;;;;8.45;64.89;98754.47;1085238;54;19950;-80
2023/04/13 02:42:23;;;;;;;;;;;;;;;8.52;64.87;98746.69;1085018;54;19947;-81
2023/04/13 02:43:27;;;;;;;;;;;;;;;8.47;65.11;98752.53;1086569;39;20372;-79
2023/04/13 02:44:29;;;;;;;;;;;;;;;8.48;64.70;98750.69;1085812;54;19951;-80
2023/04/13 02:45:43;;;;;;;;;;;;;;;8.39;64.07;98749.81;1087898;54;19942;-80
2023/04/13 02:46:44;;;;;;;;;;;;;;;8.35;64.15;98746.63;1088236;54;19961;-81
2023/04/13 02:47:55;;;;;;;;;;;;;;;8.33;63.48;98747.78;1088503;46;19986;-80
2023/04/13 02:48:56;;;;;;;;;;;;;;;8.40;63.68;98749.63;1088896;46;19950;-80
2023/04/13 02:50:07;;;;;;;;;;;;;;;8.49;63.64;98753.19;1088399;54;19950;-80
2023/04/13 02:51:08;;;;;;;;;;;;;;;8.54;63.87;98750.88;1088072;54;19938;-80
2023/04/13 02:52:13;;;;;;;;;;;;;;;8.51;63.75;98748.53;1087960;54;19986;-81
2023/04/13 02:53:15;;;;;;;;;;;;;;;8.51;63.11;98745.03;1088400;46;19957;-81
2023/04/13 02:54:29;;;;;;;;;;;;;;;8.49;63.40;98761.19;1087921;54;19966;-82
2023/04/13 02:55:30;;;;;;;;;;;;;;;8.45;63.65;98754.47;1087786;46;19947;-81
2023/04/13 02:56:34;;;;;;;;;;;;;;;8.38;62.67;98756.94;1086678;54;19957;-82
2023/04/13 02:57:35;;;;;;;;;;;;;;;8.36;62.88;98753.59;1086484;54;19962;-80
2023/04/13 02:58:40;;;;;;;;;;;;;;;8.39;62.27;98749.81;1086371;54;20524;-82
2023/04/13 02:59:42;;;;;;;;;;;;;;;8.31;62.43;98747.94;1086567;54;19946;-80
2023/04/13 03:00:48;;;;;;;;;;;;;;;8.34;62.49;98746.78;1086756;54;19950;-81
2023/04/13 03:01:49;;;;;;;;;;;;;;;8.25;62.58;98745.94;1086576;54;20042;-81
2023/04/13 03:02:54;;;;;;;;;;;;;;;8.34;62.11;98749.44;1086766;46;20003;-81
2023/04/13 03:03:55;;;;;;;;;;;;;;;8.26;61.96;98748.44;1086711;54;19946;-80
2023/04/13 03:05:01;;;;;;;;;;;;;;;8.25;61.69;98749.44;1086620;54;19958;-82
2023/04/13 03:06:02;;;;;;;;;;;;;;;8.27;61.84;98744.78;1086627;54;19973;-81
2023/04/13 03:07:08;;;;;;;;;;;;;;;8.23;61.80;98748.75;1086648;54;19939;-81
2023/04/13 03:08:10;;;;;;;;;;;;;;;8.22;61.62;98749.72;1086785;54;20047;-81
2023/04/13 03:09:15;;;;;;;;;;;;;;;8.35;61.85;98751.97;1086529;54;19966;-81
2023/04/13 03:10:18;;;;;;;;;;;;;;;8.30;61.82;98746.28;1086414;54;19950;-81
2023/04/13 03:11:22;;;;;;;;;;;;;;;8.36;61.79;98752.78;1087479;46;19957;-81
2023/04/13 03:12:25;;;;;;;;;;;;;;;8.27;61.64;98749.25;1086828;54;19951;-81
2023/04/13 03:13:27;;;;;;;;;;;;;;;8.36;61.88;98742.94;1086854;54;20552;-80
2023/04/13 03:14:32;;;;;;;;;;;;;;;8.39;62.00;98753.28;1086698;54;19951;-82
2023/04/13 03:15:33;;;;;;;;;;;;;;;8.42;61.92;98752.13;1086777;54;19962;-81
2023/04/13 03:16:39;;;;;;;;;;;;;;;8.37;61.90;98749.13;1087421;54;19966;-81
2023/04/13 03:17:42;;;;;;;;;;;;;;;8.30;61.54;98758.78;1087147;54;19946;-81
2023/04/13 03:18:46;;;;;;;;;;;;;;;8.33;61.74;98758.44;1087040;54;19978;-81
2023/04/13 03:19:48;;;;;;;;;;;;;;;8.39;62.05;98752.47;1086470;54;19951;-81
2023/04/13 03:20:52;;;;;;;;;;;;;;;8.42;62.23;98762.78;1086859;39;20366;-82
2023/04/13 03:21:53;;;;;;;;;;;;;;;8.47;62.46;98748.97;1086424;54;19947;-81
2023/04/13 03:22:58;;;;;;;;;;;;;;;8.43;62.12;98753.78;1087201;39;20353;-81
2023/04/13 03:23:59;;;;;;;;;;;;;;;8.43;61.71;98759.13;1086711;54;19947;-80
2023/04/13 03:25:04;;;;;;;;;;;;;;;8.48;62.29;98759.50;1087715;46;19959;-81
2023/04/13 03:26:06;;;;;;;;;;;;;;;8.48;62.02;98762.19;1086976;39;20495;-80
2023/04/13 03:27:09;;;;;;;;;;;;;;;8.54;61.90;98756.19;1086994;46;19972;-82
2023/04/13 03:28:13;;;;;;;;;;;;;;;8.53;61.69;98759.84;1086762;54;19942;-81
2023/04/13 03:29:15;;;;;;;;;;;;;;;8.48;61.58;98759.50;1086658;54;19963;-82
2023/04/13 03:30:18;;;;;;;;;;;;;;;8.47;62.04;98763.16;1086625;54;19962;-81
2023/04/13 03:31:21;;;;;;;;;;;;;;;8.47;62.21;98767.63;1086762;54;19969;-81
2023/04/13 03:32:27;;;;;;;;;;;;;;;8.53;62.02;98769.69;1086734;54;20501;-81
2023/04/13 03:33:28;;;;;;;;;;;;;;;8.56;61.75;98764.84;1086855;54;19954;-80
2023/04/13 03:34:32;;;;;;;;;;;;;;;8.47;61.82;98771.16;1087016;54;19948;-81
2023/04/13 03:35:33;;;;;;;;;;;;;;;8.55;61.52;98765.00;1086812;54;19947;-81
2023/04/13 03:36:38;;;;;;;;;;;;;;;8.45;61.65;98764.31;1087616;46;20010;-78
2023/04/13 03:37:41;;;;;;;;;;;;;;;8.52;61.75;98768.84;1088083;39;20713;-81
2023/04/13 03:38:45;;;;;;;;;;;;;;;8.59;61.59;98769.03;1086388;54;19957;-81
2023/04/13 03:39:49;;;;;;;;;;;;;;;8.60;61.24;98764.53;1086477;54;19998;-80
2023/04/13 03:40:53;;;;;;;;;;;;;;;8.57;61.15;98776.34;1086698;54;19947;-81
2023/04/13 03:41:54;;;;;;;;;;;;;;;8.55;60.94;98778.31;1088065;39;20338;-81
2023/04/13 03:42:58;;;;;;;;;;;;;;;8.53;61.26;98770.50;1086726;54;19951;-81
2023/04/13 03:44:02;;;;;;;;;;;;;;;8.45;61.37;98778.44;1086990;54;19950;-82
2023/04/13 03:45:08;;;;;;;;;;;;;;;8.49;61.07;98779.84;1086778;54;19953;-82
2023/04/13 03:46:09;;;;;;;;;;;;;;;8.51;61.02;98783.16;1087166;54;19933;-81
2023/04/13 03:47:16;;;;;;;;;;;;;;;8.48;60.91;98783.50;1087043;54;19957;-81
2023/04/13 03:48:20;;;;;;;;;;;;;;;8.47;60.72;98787.16;1086511;54;20002;-82
2023/04/13 03:49:24;;;;;;;;;;;;;;;8.43;60.89;98781.28;1085983;54;19958;-81
2023/04/13 03:50:27;;;;;;;;;;;;;;;8.46;60.91;98792.59;1085130;54;19997;-81
2023/04/13 03:51:31;;;;;;;;;;;;;;;8.40;61.08;98789.59;1085530;54;19970;-82
2023/04/13 03:52:39;;;;;;;;;;;;;;;8.47;61.48;98794.25;1086661;54;19974;-82
2023/04/13 03:53:43;;;;;;;;;;;;;;;8.46;60.81;98796.09;1088332;39;20350;-80
2023/04/13 03:54:59;;;;;;;;;;;;;;;8.40;61.65;98791.44;1086546;54;19947;-81
2023/04/13 03:56:02;;;;;;;;;;;;;;;8.30;61.13;98801.38;1086883;54;19942;-82
2023/04/13 03:57:05;;;;;;;;;;;;;;;8.25;61.02;98805.34;1086990;54;19942;-80
2023/04/13 03:58:08;;;;;;;;;;;;;;;8.36;61.39;98804.19;1086730;54;20055;-81
2023/04/13 03:59:10;;;;;;;;;;;;;;;8.23;61.31;98801.19;1086998;54;19957;-81
2023/04/13 04:00:15;;;;;;;;;;;;;;;8.24;61.55;98803.66;1086958;47;19950;-80
2023/04/13 04:01:16;;;;;;;;;;;;;;;8.19;61.77;98803.31;1086109;47;19950;-80
2023/04/13 04:02:26;;;;;;;;;;;;;;;8.22;61.57;98810.97;1085119;54;19950;-80
2023/04/13 04:03:30;;;;;;;;;;;;;;;8.25;61.88;98810.66;1085335;54;19947;-80
2023/04/13 04:04:35;;;;;;;;;;;;;;;8.28;61.88;98810.34;1085546;54;19985;-81
2023/04/13 04:05:37;;;;;;;;;;;;;;;8.21;62.08;98804.00;1085553;54;19950;-80
2023/04/13 04:06:42;;;;;;;;;;;;;;;8.10;62.30;98809.59;1086323;54;20081;-81
2023/04/13 04:07:45;;;;;;;;;;;;;;;8.06;62.49;98805.59;1086592;54;19957;-81
2023/04/13 04:08:50;;;;;;;;;;;;;;;8.06;62.84;98805.59;1085824;54;19958;-80
2023/04/13 04:09:51;;;;;;;;;;;;;;;8.13;62.40;98806.59;1085892;54;19951;-80
2023/04/13 04:11:07;;;;;;;;;;;;;;;8.06;63.03;98802.91;1086222;54;19946;-82
2023/04/13 04:12:08;;;;;;;;;;;;;;;8.01;63.02;98807.91;1086034;54;19939;-80
2023/04/13 04:13:17;;;;;;;;;;;;;;;7.97;63.20;98808.19;1085909;54;19951;-81
2023/04/13 04:14:19;;;;;;;;;;;;;;;7.99;63.08;98805.38;1087454;39;20401;-82
2023/04/13 04:15:23;;;;;;;;;;;;;;;7.99;62.88;98807.22;1086298;54;19943;-81
2023/04/13 04:16:33;;;;;;;;;;;;;;;8.05;62.51;98806.56;1086310;54;19930;-81
2023/04/13 04:17:34;;;;;;;;;;;;;;;8.08;62.28;98812.41;1086288;47;19946;-81
2023/04/13 04:18:41;;;;;;;;;;;;;;;8.09;62.10;98810.59;1085177;54;19950;-81
2023/04/13 04:19:42;;;;;;;;;;;;;;;8.09;62.08;98807.94;1085621;54;19942;-81
2023/04/13 04:20:47;;;;;;;;;;;;;;;8.06;62.29;98806.44;1086587;39;20323;-81
2023/04/13 04:21:48;;;;;;;;;;;;;;;8.08;62.32;98816.91;1084845;54;19953;-81
2023/04/13 04:22:59;;;;;;;;;;;;;;;8.14;62.30;98813.59;1086099;54;20042;-82
2023/04/13 04:24:01;;;;;;;;;;;;;;;8.14;62.67;98813.59;1085609;47;19982;-80
2023/04/13 04:25:05;;;;;;;;;;;;;;;8.11;62.26;98804.13;1085651;54;19989;-81
2023/04/13 04:26:06;;;;;;;;;;;;;;;8.21;62.24;98808.47;1085710;54;19950;-81
2023/04/13 04:27:13;;;;;;;;;;;;;;;8.05;62.05;98810.09;1085640;54;19954;-80
2023/04/13 04:28:16;;;;;;;;;;;;;;;8.20;62.00;98812.13;1086677;54;19931;-81
2023/04/13 04:29:20;;;;;;;;;;;;;;;8.10;62.07;98809.59;1085175;54;19951;-81
2023/04/13 04:30:22;;;;;;;;;;;;;;;8.15;62.49;98817.13;1084974;54;19957;-81
2023/04/13 04:31:34;;;;;;;;;;;;;;;8.19;62.29;98808.66;1085150;54;20472;-81
2023/04/13 04:32:35;;;;;;;;;;;;;;;8.21;61.98;98812.00;1084675;54;19947;-81
2023/04/13 04:33:43;;;;;;;;;;;;;;;8.05;61.72;98815.41;1085261;54;19947;-80
2023/04/13 04:34:45;;;;;;;;;;;;;;;8.11;62.03;98809.44;1085240;54;19951;-80
2023/04/13 04:36:00;;;;;;;;;;;;;;;8.18;62.00;98814.13;1085165;54;19950;-82
2023/04/13 04:37:04;;;;;;;;;;;;;;;8.26;61.63;98825.66;1085218;54;19954;-80
2023/04/13 04:38:08;;;;;;;;;;;;;;;8.10;61.41;98810.44;1085538;54;19953;-81
2023/04/13 04:39:13;;;;;;;;;;;;;;;8.10;61.63;98820.25;1084779;54;20476;-81
2023/04/13 04:40:18;;;;;;;;;;;;;;;8.04;61.97;98818.19;1085619;54;19946;-81
2023/04/13 04:41:19;;;;;;;;;;;;;;;8.09;62.04;98816.75;1085402;54;19950;-81
2023/04/13 04:42:23;;;;;;;;;;;;;;;8.14;62.03;98818.09;1085322;54;19953;-81
2023/04/13 04:43:25;;;;;;;;;;;;;;;8.04;62.27;98816.41;1086186;47;19950;-81
2023/04/13 04:44:29;;;;;;;;;;;;;;;8.06;61.88;98824.22;1085407;54;20549;-81
2023/04/13 04:45:35;;;;;;;;;;;;;;;8.01;62.01;98818.53;1085756;54;20021;-82
2023/04/13 04:46:40;;;;;;;;;;;;;;;7.95;62.23;98820.81;1085718;54;19950;-80
2023/04/13 04:47:42;;;;;;;;;;;;;;;7.93;62.16;98824.66;1085859;39;20104;-80
2023/04/13 04:48:50;;;;;;;;;;;;;;;7.95;62.28;98826.16;1085113;54;20006;-82
2023/04/13 04:49:51;;;;;;;;;;;;;;;7.95;61.98;98831.47;1085228;54;19946;-82
2023/04/13 04:50:56;;;;;;;;;;;;;;;7.99;62.11;98829.31;1085245;54;20446;-79
2023/04/13 04:51:57;;;;;;;;;;;;;;;7.97;62.57;98829.50;1087394;31;20454;-80
2023/04/13 04:53:02;;;;;;;;;;;;;;;8.02;62.56;98830.88;1085737;54;19947;-81
2023/04/13 04:54:06;;;;;;;;;;;;;;;7.96;62.33;98833.16;1085334;54;19958;-81
2023/04/13 04:55:14;;;;;;;;;;;;;;;7.96;62.16;98832.31;1085501;54;19954;-81
2023/04/13 04:56:21;;;;;;;;;;;;;;;7.91;62.22;98830.13;1085646;54;20525;-81
2023/04/13 04:57:26;;;;;;;;;;;;;;;8.08;61.93;98840.88;1087278;39;20670;-82
2023/04/13 04:58:36;;;;;;;;;;;;;;;8.09;61.63;98832.72;1085951;54;19954;-81
2023/04/13 05:01:14;;;;;;;;;;;;;;;8.09;61.66;98845.19;1087592;54;19959;-81
2023/04/13 05:02:18;;;;;;;;;;;;;;;8.10;61.75;98838.88;1087632;54;19947;-81
2023/04/13 05:04:56;;;;;;;;;;;;;;;8.00;61.50;98838.16;1086979;54;19939;-81
2023/04/13 05:05:58;;;;;;;;;;;;;;;8.15;61.47;98835.75;1086879;54;19991;-82
2023/04/13 05:07:02;;;;;;;;;;;;;;;8.07;61.51;98837.38;1087033;46;19957;-82
2023/04/13 05:08:04;;;;;;;;;;;;;;;8.03;61.88;98837.84;1086701;54;19950;-82
2023/04/13 05:09:10;;;;;;;;;;;;;;;8.06;61.80;98835.72;1086678;54;19950;-83
2023/04/13 05:10:23;;;;;;;;;;;;;;;8.11;61.84;98841.38;1087964;39;20351;-81
2023/04/13 05:11:24;;;;;;;;;;;;;;;8.08;61.64;98839.03;1089603;39;20233;-81
2023/04/13 05:12:41;;;;;;;;;;;;;;;8.05;61.70;98851.81;1087188;39;20445;-82
2023/04/13 05:13:45;;;;;;;;;;;;;;;7.98;61.78;98841.00;1087143;54;19951;-82
2023/04/13 05:14:55;;;;;;;;;;;;;;;7.93;61.54;98844.13;1087313;54;20320;-81
2023/04/13 05:15:56;;;;;;;;;;;;;;;7.89;61.63;98845.41;1087164;54;19962;-82
2023/04/13 05:17:04;;;;;;;;;;;;;;;7.95;61.97;98846.63;1087133;54;19939;-81
2023/04/13 05:18:05;;;;;;;;;;;;;;;7.97;61.83;98849.97;1086906;54;19951;-80
2023/04/13 05:19:11;;;;;;;;;;;;;;;7.97;62.30;98850.78;1087971;39;20418;-81
2023/04/13 05:20:15;;;;;;;;;;;;;;;7.99;62.12;98847.13;1089366;39;20334;-82
2023/04/13 05:21:37;;;;;;;;;;;;;;;7.96;61.86;98842.97;1087897;54;20524;-82
2023/04/13 05:22:38;;;;;;;;;;;;;;;8.07;62.09;98833.88;1088292;46;19973;-83
2023/04/13 05:23:47;;;;;;;;;;;;;;;8.00;62.07;98848.81;1088408;46;19951;-82
2023/04/13 05:24:48;;;;;;;;;;;;;;;7.95;62.43;98841.28;1088552;46;19965;-83
2023/04/13 05:25:54;;;;;;;;;;;;;;;7.92;62.44;98842.44;1088097;54;19938;-82
2023/04/13 05:27:06;;;;;;;;;;;;;;;7.95;62.59;98855.44;1089304;46;19965;-82
2023/04/13 05:28:10;;;;;;;;;;;;;;;7.93;62.61;98845.94;1089230;46;19939;-83
2023/04/13 05:29:13;;;;;;;;;;;;;;;7.93;62.58;98846.78;1088093;46;19961;-82
2023/04/13 05:30:17;;;;;;;;;;;;;;;7.98;62.80;98841.00;1087053;54;19926;-83
2023/04/13 05:32:55;;;;;;;;;;;;;;;7.96;62.95;98838.47;1087147;54;19973;-81
2023/04/13 05:34:05;;;;;;;;;;;;;;;8.02;63.01;98841.50;1087989;39;20310;-80
2023/04/13 05:35:10;;;;;;;;;;;;;;;8.07;62.94;98845.38;1085844;54;20513;-80
2023/04/13 05:36:15;;;;;;;;;;;;;;;8.06;62.93;98845.50;1085465;54;19947;-81
2023/04/13 05:37:34;;;;;;;;;;;;;;;7.98;63.06;98854.31;1084839;54;19953;-81
2023/04/13 05:38:35;;;;;;;;;;;;;;;7.95;63.15;98852.75;1086485;54;19977;-80
2023/04/13 05:39:40;;;;;;;;;;;;;;;7.97;63.27;98856.09;1086148;39;20438;-80
2023/04/13 05:40:42;;;;;;;;;;;;;;;7.96;63.44;98851.78;1087382;54;20353;-82
2023/04/13 05:41:47;;;;;;;;;;;;;;;7.92;63.52;98858.41;1088004;54;19950;-82
2023/04/13 05:42:49;;;;;;;;;;;;;;;7.94;63.48;98864.41;1087997;54;19966;-81
2023/04/13 05:43:53;;;;;;;;;;;;;;;7.94;63.70;98866.25;1087962;54;19939;-81
2023/04/13 05:44:54;;;;;;;;;;;;;;;7.95;63.86;98858.09;1088076;46;19942;-82